createdAt,value
2019-05-28T00:00:02.864Z,20
2019-05-28T00:01:05.687Z,20
2019-05-28T00:02:06.991Z,20
2019-05-28T00:03:08.273Z,20
2019-05-28T00:04:09.651Z,20
2019-05-28T00:05:10.959Z,20
2019-05-28T00:06:13.295Z,20
2019-05-28T00:07:14.585Z,20
2019-05-28T00:08:15.861Z,20
2019-05-28T00:09:17.135Z,20
2019-05-28T00:10:18.415Z,20
2019-05-28T00:11:19.749Z,19.9
2019-05-28T00:12:21.047Z,19.9
2019-05-28T00:13:22.579Z,19.9
2019-05-28T00:14:23.843Z,19.9
2019-05-28T00:15:25.125Z,19.9
2019-05-28T00:16:26.417Z,19.9
2019-05-28T00:17:27.723Z,19.9
2019-05-28T00:18:29.625Z,19.9
2019-05-28T00:19:30.945Z,19.9
2019-05-28T00:20:32.385Z,19.9
2019-05-28T00:21:33.731Z,19.9
2019-05-28T00:22:35.061Z,19.9
2019-05-28T00:23:36.370Z,19.9
2019-05-28T00:24:37.649Z,19.9
2019-05-28T00:25:39.067Z,19.9
2019-05-28T00:26:40.363Z,19.8
2019-05-28T00:27:41.741Z,19.9
2019-05-28T00:28:43.023Z,19.9
2019-05-28T00:29:44.289Z,19.9
2019-05-28T00:30:45.595Z,19.8
2019-05-28T00:31:46.905Z,19.8
2019-05-28T00:32:48.181Z,19.8
2019-05-28T00:33:49.457Z,19.8
2019-05-28T00:34:50.739Z,19.8
2019-05-28T00:35:52.339Z,19.8
2019-05-28T00:36:53.896Z,19.8
2019-05-28T00:37:55.181Z,19.8
2019-05-28T00:38:56.460Z,19.8
2019-05-28T00:39:57.790Z,19.8
2019-05-28T00:41:03.162Z,19.8
2019-05-28T00:42:04.669Z,19.8
2019-05-28T00:43:07.077Z,19.8
2019-05-28T00:44:08.342Z,19.8
2019-05-28T00:45:09.629Z,19.8
2019-05-28T00:46:10.931Z,19.7
2019-05-28T00:47:12.369Z,19.8
2019-05-28T00:48:13.660Z,19.7
2019-05-28T00:49:15.267Z,19.7
2019-05-28T00:50:16.589Z,19.7
2019-05-28T00:51:17.873Z,19.7
2019-05-28T00:52:19.202Z,19.7
2019-05-28T00:53:20.501Z,19.7
2019-05-28T00:54:21.785Z,19.7
2019-05-28T00:55:23.103Z,19.7
2019-05-28T00:56:24.407Z,19.7
2019-05-28T00:57:25.808Z,19.7
2019-05-28T00:58:27.093Z,19.7
2019-05-28T00:59:28.375Z,19.7
2019-05-28T01:00:36.756Z,19.7
2019-05-28T01:01:38.458Z,19.7
2019-05-28T01:02:39.761Z,19.7
2019-05-28T01:03:41.149Z,19.6
2019-05-28T01:04:42.497Z,19.6
2019-05-28T01:05:43.833Z,19.6
2019-05-28T01:06:45.159Z,19.6
2019-05-28T01:07:46.685Z,19.6
2019-05-28T01:08:48.010Z,19.6
2019-05-28T01:09:49.318Z,19.6
2019-05-28T01:10:50.617Z,19.6
2019-05-28T01:11:51.935Z,19.6
2019-05-28T01:12:53.261Z,19.6
2019-05-28T01:13:54.537Z,19.6
2019-05-28T01:14:55.802Z,19.6
2019-05-28T01:15:57.100Z,19.6
2019-05-28T01:16:58.376Z,19.6
2019-05-28T01:17:59.711Z,19.6
2019-05-28T01:19:01.007Z,19.6
2019-05-28T01:20:02.387Z,19.6
2019-05-28T01:21:03.662Z,19.6
2019-05-28T01:22:05.293Z,19.6
2019-05-28T01:23:06.630Z,19.5
2019-05-28T01:24:08.689Z,19.5
2019-05-28T01:25:09.995Z,19.5
2019-05-28T01:26:11.289Z,19.5
2019-05-28T01:27:12.577Z,19.5
2019-05-28T01:28:13.897Z,19.5
2019-05-28T01:29:15.167Z,19.5
2019-05-28T01:30:16.443Z,19.5
2019-05-28T01:31:17.746Z,19.5
2019-05-28T01:32:19.030Z,19.5
2019-05-28T01:33:20.443Z,19.5
2019-05-28T01:34:21.727Z,19.5
2019-05-28T01:35:23.011Z,19.5
2019-05-28T01:36:24.314Z,19.5
2019-05-28T01:37:25.616Z,19.5
2019-05-28T01:38:26.940Z,19.5
2019-05-28T01:39:28.216Z,19.5
2019-05-28T01:40:29.509Z,19.4
2019-05-28T01:41:30.773Z,19.4
2019-05-28T01:42:32.053Z,19.5
2019-05-28T01:43:33.705Z,19.4
2019-05-28T01:44:35.056Z,19.4
2019-05-28T01:45:36.308Z,19.4
2019-05-28T01:46:37.590Z,19.4
2019-05-28T01:47:38.909Z,19.4
2019-05-28T01:48:40.218Z,19.4
2019-05-28T01:49:41.485Z,19.4
2019-05-28T01:50:42.793Z,19.4
2019-05-28T01:51:44.075Z,19.4
2019-05-28T01:52:45.401Z,19.4
2019-05-28T01:53:46.716Z,19.4
2019-05-28T01:54:48.331Z,19.4
2019-05-28T01:55:49.620Z,19.4
2019-05-28T01:56:50.947Z,19.3
2019-05-28T01:57:52.252Z,19.3
2019-05-28T01:58:53.570Z,19.3
2019-05-28T01:59:54.864Z,19.3
2019-05-28T02:01:11.397Z,19.3
2019-05-28T02:02:14.182Z,19.3
2019-05-28T02:03:15.452Z,19.3
2019-05-28T02:04:16.756Z,19.3
2019-05-28T02:05:18.063Z,19.3
2019-05-28T02:06:19.374Z,19.3
2019-05-28T02:07:20.677Z,19.3
2019-05-28T02:08:22.218Z,19.3
2019-05-28T02:09:23.557Z,19.3
2019-05-28T02:10:25.048Z,19.2
2019-05-28T02:11:26.327Z,19.2
2019-05-28T02:12:29.008Z,19.2
2019-05-28T02:13:30.333Z,19.2
2019-05-28T02:14:31.709Z,19.2
2019-05-28T02:15:32.996Z,19.2
2019-05-28T02:16:34.276Z,19.2
2019-05-28T02:17:35.561Z,19.2
2019-05-28T02:18:36.835Z,19.2
2019-05-28T02:19:38.183Z,19.2
2019-05-28T02:20:39.462Z,19.2
2019-05-28T02:21:40.736Z,19.2
2019-05-28T02:22:44.468Z,19.2
2019-05-28T02:23:45.752Z,19.2
2019-05-28T02:24:47.099Z,19.2
2019-05-28T02:25:48.370Z,19.2
2019-05-28T02:26:49.672Z,19.1
2019-05-28T02:27:52.618Z,19.1
2019-05-28T02:28:53.893Z,19.1
2019-05-28T02:29:55.196Z,19.1
2019-05-28T02:30:56.496Z,19.1
2019-05-28T02:31:57.786Z,19.1
2019-05-28T02:32:59.068Z,19.1
2019-05-28T02:34:00.324Z,19.1
2019-05-28T02:35:01.646Z,19.1
2019-05-28T02:36:02.908Z,19.1
2019-05-28T02:37:04.193Z,19.1
2019-05-28T02:38:05.502Z,19.1
2019-05-28T02:39:06.797Z,19.1
2019-05-28T02:40:08.121Z,19.1
2019-05-28T02:41:09.428Z,19.1
2019-05-28T02:42:10.782Z,19.1
2019-05-28T02:43:12.336Z,19
2019-05-28T02:44:13.644Z,19
2019-05-28T02:45:14.966Z,19
2019-05-28T02:46:16.252Z,19
2019-05-28T02:47:17.566Z,19
2019-05-28T02:48:19.366Z,19
2019-05-28T02:49:20.675Z,19
2019-05-28T02:50:21.994Z,19
2019-05-28T02:51:23.269Z,19
2019-05-28T02:52:24.550Z,19
2019-05-28T02:53:25.925Z,19
2019-05-28T02:54:27.182Z,19
2019-05-28T02:55:28.504Z,19
2019-05-28T02:56:29.800Z,19
2019-05-28T02:57:31.134Z,19
2019-05-28T02:58:32.429Z,19
2019-05-28T02:59:33.712Z,19
2019-05-28T03:00:35.017Z,19
2019-05-28T03:01:43.798Z,19
2019-05-28T03:02:45.922Z,19
2019-05-28T03:03:47.219Z,19
2019-05-28T03:04:48.513Z,19
2019-05-28T03:05:49.905Z,19
2019-05-28T03:06:51.214Z,18.9
2019-05-28T03:07:54.999Z,18.9
2019-05-28T03:08:57.067Z,18.9
2019-05-28T03:09:58.340Z,18.9
2019-05-28T03:11:03.378Z,18.9
2019-05-28T03:12:05.624Z,18.9
2019-05-28T03:13:06.922Z,18.9
2019-05-28T03:14:08.280Z,18.9
2019-05-28T03:15:09.576Z,18.9
2019-05-28T03:16:10.898Z,18.9
2019-05-28T03:17:12.188Z,18.9
2019-05-28T03:18:13.508Z,18.9
2019-05-28T03:19:14.828Z,18.9
2019-05-28T03:20:16.171Z,18.9
2019-05-28T03:21:20.518Z,18.9
2019-05-28T03:22:21.786Z,18.9
2019-05-28T03:23:23.073Z,18.9
2019-05-28T03:24:27.108Z,18.9
2019-05-28T03:25:28.384Z,18.9
2019-05-28T03:26:29.710Z,18.9
2019-05-28T03:27:30.982Z,18.9
2019-05-28T03:28:32.293Z,18.8
2019-05-28T03:29:33.564Z,18.9
2019-05-28T03:30:34.862Z,18.8
2019-05-28T03:31:37.175Z,18.8
2019-05-28T03:32:38.512Z,18.8
2019-05-28T03:33:39.822Z,18.8
2019-05-28T03:34:43.334Z,18.8
2019-05-28T03:35:44.609Z,18.8
2019-05-28T03:36:45.982Z,18.8
2019-05-28T03:37:47.722Z,18.8
2019-05-28T03:38:48.995Z,18.8
2019-05-28T03:39:50.287Z,18.8
2019-05-28T03:40:51.560Z,18.8
2019-05-28T03:41:52.925Z,18.8
2019-05-28T03:42:54.314Z,18.8
2019-05-28T03:43:55.586Z,18.8
2019-05-28T03:44:56.867Z,18.8
2019-05-28T03:45:58.318Z,18.8
2019-05-28T03:46:59.626Z,18.8
2019-05-28T03:48:00.910Z,18.8
2019-05-28T03:49:04.590Z,18.8
2019-05-28T03:50:05.862Z,18.8
2019-05-28T03:51:07.144Z,18.8
2019-05-28T03:52:08.475Z,18.8
2019-05-28T03:53:12.183Z,18.8
2019-05-28T03:54:13.478Z,18.8
2019-05-28T03:55:14.753Z,18.8
2019-05-28T03:56:16.032Z,18.8
2019-05-28T03:57:17.390Z,18.7
2019-05-28T03:58:18.737Z,18.8
2019-05-28T03:59:20.106Z,18.8
2019-05-28T04:00:22.498Z,18.8
2019-05-28T04:01:23.777Z,18.6
2019-05-28T04:02:25.131Z,18.8
2019-05-28T04:03:26.431Z,18.8
2019-05-28T04:04:27.713Z,18.8
2019-05-28T04:05:29.011Z,18.8
2019-05-28T04:06:30.302Z,18.7
2019-05-28T04:07:31.592Z,18.7
2019-05-28T04:08:34.996Z,18.7
2019-05-28T04:09:36.290Z,18.5
2019-05-28T04:10:37.578Z,18.8
2019-05-28T04:11:44.589Z,18.7
2019-05-28T04:12:46.668Z,18.7
2019-05-28T04:13:47.960Z,18.7
2019-05-28T04:14:49.227Z,18.6
2019-05-28T04:15:50.551Z,18.7
2019-05-28T04:16:51.864Z,18.8
2019-05-28T04:17:53.191Z,18.8
2019-05-28T04:18:54.473Z,18.8
2019-05-28T04:19:55.766Z,18.8
2019-05-28T04:20:57.040Z,18.8
2019-05-28T04:21:58.348Z,18.7
2019-05-28T04:22:59.743Z,18.8
2019-05-28T04:24:03.877Z,18.7
2019-05-28T04:25:05.197Z,18.8
2019-05-28T04:26:09.247Z,18.8
2019-05-28T04:27:10.871Z,18.8
2019-05-28T04:28:12.319Z,18.8
2019-05-28T04:29:13.687Z,18.8
2019-05-28T04:30:14.994Z,18.7
2019-05-28T04:31:16.333Z,18.8
2019-05-28T04:32:17.621Z,18.8
2019-05-28T04:33:18.968Z,18.8
2019-05-28T04:34:20.257Z,18.8
2019-05-28T04:35:21.537Z,18.7
2019-05-28T04:36:22.938Z,18.8
2019-05-28T04:37:24.225Z,18.8
2019-05-28T04:38:25.544Z,18.8
2019-05-28T04:39:26.837Z,18.8
2019-05-28T04:40:28.193Z,18.8
2019-05-28T04:41:29.527Z,18.8
2019-05-28T04:42:30.793Z,18.8
2019-05-28T04:43:32.159Z,18.8
2019-05-28T04:44:33.440Z,18.8
2019-05-28T04:45:34.735Z,18.8
2019-05-28T04:46:36.037Z,18.8
2019-05-28T04:47:37.327Z,18.8
2019-05-28T04:48:38.677Z,18.8
2019-05-28T04:49:39.976Z,18.8
2019-05-28T04:50:41.266Z,18.8
2019-05-28T04:51:42.533Z,18.8
2019-05-28T04:52:43.917Z,18.8
2019-05-28T04:53:45.229Z,18.9
2019-05-28T04:54:46.523Z,18.8
2019-05-28T04:55:47.808Z,18.9
2019-05-28T04:56:49.163Z,18.9
2019-05-28T04:57:51.740Z,18.9
2019-05-28T04:58:53.104Z,18.9
2019-05-28T04:59:54.785Z,18.9
2019-05-28T05:00:56.103Z,18.9
2019-05-28T05:01:57.371Z,18.9
2019-05-28T05:03:00.900Z,18.9
2019-05-28T05:04:03.651Z,18.9
2019-05-28T05:05:04.973Z,18.9
2019-05-28T05:06:06.261Z,18.9
2019-05-28T05:07:07.857Z,18.9
2019-05-28T05:08:10.188Z,18.9
2019-05-28T05:09:11.515Z,18.9
2019-05-28T05:10:12.853Z,18.9
2019-05-28T05:11:14.163Z,19
2019-05-28T05:12:15.755Z,18.9
2019-05-28T05:13:19.924Z,19
2019-05-28T05:14:21.263Z,19
2019-05-28T05:15:31.351Z,19
2019-05-28T05:16:34.197Z,19
2019-05-28T05:17:38.548Z,19
2019-05-28T05:18:39.863Z,19
2019-05-28T05:19:41.217Z,19
2019-05-28T05:20:42.515Z,19
2019-05-28T05:21:43.929Z,19
2019-05-28T05:22:45.267Z,19.1
2019-05-28T05:23:46.883Z,19.1
2019-05-28T05:24:51.217Z,19.1
2019-05-28T05:25:52.553Z,19.1
2019-05-28T05:26:53.826Z,19.2
2019-05-28T05:28:04.260Z,19.2
2019-05-28T05:29:19.769Z,19.2
2019-05-28T05:30:21.618Z,19.2
2019-05-28T05:31:22.994Z,19.3
2019-05-28T05:32:27.551Z,19.3
2019-05-28T05:33:31.984Z,19.3
2019-05-28T05:34:36.260Z,19.4
2019-05-28T05:35:40.593Z,19.4
2019-05-28T05:36:41.869Z,19.5
2019-05-28T05:37:45.563Z,19.5
2019-05-28T05:38:49.337Z,19.5
2019-05-28T05:39:50.627Z,19.5
2019-05-28T05:40:52.250Z,19.5
2019-05-28T05:41:53.602Z,19.5
2019-05-28T05:42:54.955Z,19.5
2019-05-28T05:43:56.259Z,19.6
2019-05-28T05:44:57.539Z,19.6
2019-05-28T05:46:00.360Z,19.7
2019-05-28T05:47:05.205Z,19.7
2019-05-28T05:48:09.370Z,19.7
2019-05-28T05:49:10.679Z,19.7
2019-05-28T05:50:12.357Z,19.8
2019-05-28T05:51:13.690Z,19.8
2019-05-28T05:52:15.339Z,19.8
2019-05-28T05:53:24.048Z,19.8
2019-05-28T05:54:25.374Z,19.9
2019-05-28T05:55:26.693Z,19.9
2019-05-28T05:56:28.013Z,19.9
2019-05-28T05:57:29.307Z,20
2019-05-28T05:58:30.633Z,20
2019-05-28T05:59:31.941Z,20
2019-05-28T06:00:33.239Z,20
2019-05-28T06:01:34.667Z,20
2019-05-28T06:02:36.345Z,20
2019-05-28T06:03:40.592Z,20.1
2019-05-28T06:04:43.431Z,20
2019-05-28T06:05:47.605Z,20.1
2019-05-28T06:06:48.937Z,20.1
2019-05-28T06:07:52.244Z,20.2
2019-05-28T06:08:53.759Z,20.2
2019-05-28T06:09:57.955Z,20.2
2019-05-28T06:10:59.306Z,20.3
2019-05-28T06:12:00.629Z,20.3
2019-05-28T06:13:01.907Z,20.3
2019-05-28T06:14:03.223Z,20.4
2019-05-28T06:15:04.646Z,20.4
2019-05-28T06:16:06.018Z,20.5
2019-05-28T06:17:07.450Z,20.5
2019-05-28T06:18:09.282Z,20.5
2019-05-28T06:19:10.811Z,20.5
2019-05-28T06:20:12.143Z,20.5
2019-05-28T06:21:18.696Z,20.5
2019-05-28T06:22:20.373Z,20.6
2019-05-28T06:23:21.658Z,20.6
2019-05-28T06:24:22.959Z,20.6
2019-05-28T06:25:24.251Z,20.6
2019-05-28T06:26:26.533Z,20.7
2019-05-28T06:27:28.039Z,20.7
2019-05-28T06:28:29.399Z,20.7
2019-05-28T06:29:30.701Z,20.7
2019-05-28T06:30:32.030Z,20.8
2019-05-28T06:31:34.760Z,20.8
2019-05-28T06:32:37.986Z,20.8
2019-05-28T06:33:53.402Z,20.8
2019-05-28T06:34:58.265Z,20.9
2019-05-28T06:35:59.585Z,20.9
2019-05-28T06:37:00.885Z,20.9
2019-05-28T06:38:02.353Z,20.9
2019-05-28T06:39:06.758Z,20.9
2019-05-28T06:40:08.467Z,20.9
2019-05-28T06:41:13.737Z,21
2019-05-28T06:42:15.046Z,21
2019-05-28T06:43:16.382Z,21
2019-05-28T06:44:19.372Z,21
2019-05-28T06:45:21.144Z,21
2019-05-28T06:46:22.802Z,21
2019-05-28T06:47:27.045Z,21.1
2019-05-28T06:48:28.420Z,21.1
2019-05-28T06:49:30.117Z,21.1
2019-05-28T06:50:31.656Z,21.1
2019-05-28T06:51:33.633Z,21.1
2019-05-28T06:52:34.935Z,21
2019-05-28T06:53:42.806Z,21.1
2019-05-28T06:54:44.151Z,21.2
2019-05-28T06:55:45.444Z,21.2
2019-05-28T06:56:46.777Z,21.2
2019-05-28T06:57:48.136Z,21.2
2019-05-28T06:58:49.471Z,21.2
2019-05-28T06:59:52.420Z,21.2
2019-05-28T07:00:53.734Z,21.3
2019-05-28T07:01:54.999Z,21.3
2019-05-28T07:02:59.650Z,21.3
2019-05-28T07:04:13.703Z,21.3
2019-05-28T07:05:32.450Z,21.4
2019-05-28T07:06:36.096Z,21.4
2019-05-28T07:07:37.407Z,21.4
2019-05-28T07:08:39.166Z,21.4
2019-05-28T07:09:41.410Z,21.4
2019-05-28T07:10:58.380Z,21.4
2019-05-28T07:12:00.690Z,21.4
2019-05-28T07:13:02.228Z,21.4
2019-05-28T07:14:03.806Z,21.4
2019-05-28T07:15:11.054Z,21.5
2019-05-28T07:16:12.364Z,21.5
2019-05-28T07:17:13.658Z,21.5
2019-05-28T07:18:17.524Z,21.5
2019-05-28T07:19:24.382Z,21.5
2019-05-28T07:20:26.446Z,21.5
2019-05-28T07:21:27.754Z,21.5
2019-05-28T07:22:31.524Z,21.6
2019-05-28T07:23:35.393Z,21.6
2019-05-28T07:24:36.970Z,21.6
2019-05-28T07:25:38.586Z,21.6
2019-05-28T07:26:40.355Z,21.6
2019-05-28T07:27:41.643Z,21.6
2019-05-28T07:28:43.314Z,21.6
2019-05-28T07:29:45.018Z,21.7
2019-05-28T07:30:46.356Z,21.7
2019-05-28T07:31:50.742Z,21.7
2019-05-28T07:32:52.066Z,21.7
2019-05-28T07:33:53.580Z,21.8
2019-05-28T07:34:57.301Z,21.8
2019-05-28T07:35:58.690Z,21.8
2019-05-28T07:37:00.294Z,21.8
2019-05-28T07:38:04.613Z,21.9
2019-05-28T07:39:11.875Z,21.9
2019-05-28T07:40:28.128Z,21.9
2019-05-28T07:41:33.156Z,21.9
2019-05-28T07:42:37.392Z,22
2019-05-28T07:43:38.705Z,22
2019-05-28T07:44:43.936Z,22
2019-05-28T07:45:47.838Z,22
2019-05-28T07:46:49.245Z,22.1
2019-05-28T07:47:52.087Z,22.1
2019-05-28T07:48:53.537Z,22.1
2019-05-28T07:49:54.975Z,22.1
2019-05-28T07:50:56.284Z,22.2
2019-05-28T07:51:57.676Z,22.2
2019-05-28T07:52:59.221Z,22.3
2019-05-28T07:54:00.515Z,22.3
2019-05-28T07:55:02.063Z,22.4
2019-05-28T07:56:06.334Z,22.4
2019-05-28T07:57:07.971Z,22.5
2019-05-28T07:58:11.140Z,22.5
2019-05-28T07:59:12.648Z,22.6
2019-05-28T08:00:13.944Z,22.6
2019-05-28T08:01:15.247Z,22.6
2019-05-28T08:02:22.761Z,22.6
2019-05-28T08:03:24.354Z,22.6
2019-05-28T08:04:28.598Z,22.6
2019-05-28T08:05:46.896Z,22.5
2019-05-28T08:06:54.535Z,22.6
2019-05-28T08:07:59.366Z,22.6
2019-05-28T08:09:00.804Z,22.6
2019-05-28T08:10:04.888Z,22.7
2019-05-28T08:11:08.691Z,22.7
2019-05-28T08:12:12.843Z,22.7
2019-05-28T08:13:17.571Z,22.8
2019-05-28T08:14:18.883Z,22.8
2019-05-28T08:15:20.451Z,22.8
2019-05-28T08:16:24.101Z,22.9
2019-05-28T08:17:25.716Z,22.9
2019-05-28T08:18:27.098Z,22.9
2019-05-28T08:19:28.384Z,23
2019-05-28T08:20:29.690Z,23
2019-05-28T08:21:32.365Z,23
2019-05-28T08:22:42.050Z,23
2019-05-28T08:23:44.374Z,23
2019-05-28T08:24:45.714Z,23.1
2019-05-28T08:25:47.936Z,23.2
2019-05-28T08:26:49.428Z,23.2
2019-05-28T08:27:50.793Z,23.1
2019-05-28T08:28:52.327Z,23.3
2019-05-28T08:29:53.632Z,23.3
2019-05-28T08:31:04.600Z,23.4
2019-05-28T08:32:23.301Z,23.4
2019-05-28T08:33:24.643Z,23.5
2019-05-28T08:34:26.305Z,23.5
2019-05-28T08:35:28.328Z,23.5
2019-05-28T08:36:29.638Z,23.5
2019-05-28T08:37:30.921Z,23.5
2019-05-28T08:38:32.234Z,23.5
2019-05-28T08:39:33.806Z,23.6
2019-05-28T08:40:37.287Z,23.6
2019-05-28T08:41:41.758Z,23.6
2019-05-28T08:42:43.514Z,23.7
2019-05-28T08:43:45.189Z,23.7
2019-05-28T08:44:46.551Z,23.7
2019-05-28T08:45:47.983Z,23.7
2019-05-28T08:46:49.616Z,23.8
2019-05-28T08:47:52.075Z,23.8
2019-05-28T08:48:53.394Z,23.8
2019-05-28T08:49:55.247Z,23.8
2019-05-28T08:50:56.587Z,23.9
2019-05-28T08:51:57.955Z,23.9
2019-05-28T08:52:59.354Z,23.9
2019-05-28T08:54:03.349Z,24
2019-05-28T08:55:14.438Z,24
2019-05-28T08:56:15.760Z,24
2019-05-28T08:57:18.151Z,24
2019-05-28T08:58:20.385Z,24
2019-05-28T08:59:21.688Z,24.1
2019-05-28T09:00:23.288Z,24.1
2019-05-28T09:01:24.625Z,24.1
2019-05-28T09:02:28.234Z,24.1
2019-05-28T09:03:30.148Z,24.1
2019-05-28T09:04:31.449Z,24.2
2019-05-28T09:05:33.091Z,24.2
2019-05-28T09:06:37.203Z,24.2
2019-05-28T09:07:38.595Z,24.2
2019-05-28T09:08:41.055Z,24.2
2019-05-28T09:09:42.614Z,24.3
2019-05-28T09:10:44.096Z,24.3
2019-05-28T09:11:45.389Z,24.3
2019-05-28T09:12:46.717Z,24.3
2019-05-28T09:13:48.032Z,24.3
2019-05-28T09:14:55.543Z,24.3
2019-05-28T09:15:57.570Z,24.3
2019-05-28T09:16:58.974Z,24.3
2019-05-28T09:18:00.356Z,24.4
2019-05-28T09:19:01.693Z,24.4
2019-05-28T09:20:03.003Z,24.4
2019-05-28T09:21:05.412Z,24.4
2019-05-28T09:22:22.517Z,24.4
2019-05-28T09:23:27.149Z,24.4
2019-05-28T09:24:28.515Z,24.5
2019-05-28T09:25:29.840Z,24.5
2019-05-28T09:26:31.257Z,24.5
2019-05-28T09:27:38.417Z,24.5
2019-05-28T09:28:39.735Z,24.5
2019-05-28T09:29:41.080Z,24.6
2019-05-28T09:30:42.398Z,24.6
2019-05-28T09:31:43.837Z,24.6
2019-05-28T09:32:45.200Z,24.6
2019-05-28T09:33:52.633Z,24.7
2019-05-28T09:34:57.156Z,24.7
2019-05-28T09:36:08.409Z,24.7
2019-05-28T09:37:10.469Z,24.7
2019-05-28T09:38:15.094Z,24.7
2019-05-28T09:39:19.215Z,24.8
2019-05-28T09:40:21.680Z,24.8
2019-05-28T09:41:23.020Z,24.8
2019-05-28T09:42:24.372Z,24.8
2019-05-28T09:43:25.693Z,24.8
2019-05-28T09:44:27.072Z,24.8
2019-05-28T09:45:28.395Z,24.8
2019-05-28T09:46:32.017Z,24.8
2019-05-28T09:47:33.403Z,24.8
2019-05-28T09:48:34.711Z,24.8
2019-05-28T09:49:36.341Z,24.8
2019-05-28T09:50:37.780Z,24.7
2019-05-28T09:51:39.096Z,24.9
2019-05-28T09:52:53.374Z,24.9
2019-05-28T09:53:56.159Z,24.9
2019-05-28T09:54:57.448Z,24.9
2019-05-28T09:55:58.749Z,24.9
2019-05-28T09:57:00.103Z,24.9
2019-05-28T09:58:01.815Z,24.9
2019-05-28T09:59:03.137Z,24.9
2019-05-28T10:00:04.479Z,24.9
2019-05-28T10:01:05.755Z,24.9
2019-05-28T10:02:07.154Z,24.9
2019-05-28T10:03:08.835Z,24.9
2019-05-28T10:04:12.619Z,25
2019-05-28T10:05:16.669Z,25
2019-05-28T10:06:18.334Z,25
2019-05-28T10:07:19.698Z,25
2019-05-28T10:08:24.245Z,25
2019-05-28T10:09:25.607Z,25
2019-05-28T10:10:28.551Z,25
2019-05-28T10:11:29.922Z,25
2019-05-28T10:12:31.248Z,25
2019-05-28T10:13:38.711Z,25
2019-05-28T10:14:44.353Z,25
2019-05-28T10:15:46.253Z,25
2019-05-28T10:16:50.243Z,25
2019-05-28T10:17:51.809Z,25
2019-05-28T10:18:54.393Z,25
2019-05-28T10:19:57.267Z,25
2019-05-28T10:21:14.600Z,25
2019-05-28T10:22:20.061Z,25
2019-05-28T10:23:21.362Z,25
2019-05-28T10:24:24.443Z,25.1
2019-05-28T10:25:27.720Z,25.1
2019-05-28T10:26:29.003Z,25.1
2019-05-28T10:27:30.326Z,25.1
2019-05-28T10:28:31.655Z,25.1
2019-05-28T10:29:33.221Z,25.1
2019-05-28T10:30:34.516Z,25.1
2019-05-28T10:31:37.078Z,25.1
2019-05-28T10:32:38.389Z,25.1
2019-05-28T10:33:42.071Z,25.1
2019-05-28T10:34:59.988Z,25.1
2019-05-28T10:36:05.111Z,25.2
2019-05-28T10:37:11.760Z,25.2
2019-05-28T10:38:15.006Z,25.2
2019-05-28T10:39:18.029Z,25.2
2019-05-28T10:40:19.635Z,25.2
2019-05-28T10:41:20.989Z,25.2
2019-05-28T10:42:22.315Z,25.2
2019-05-28T10:43:23.641Z,25.2
2019-05-28T10:44:27.574Z,25.2
2019-05-28T10:45:30.095Z,25.2
2019-05-28T10:46:31.442Z,25.3
2019-05-28T10:47:32.790Z,25.3
2019-05-28T10:48:34.321Z,25.3
2019-05-28T10:49:35.693Z,25.3
2019-05-28T10:50:37.016Z,25.3
2019-05-28T10:51:40.097Z,25.3
2019-05-28T10:52:42.966Z,25.3
2019-05-28T10:53:44.544Z,25.3
2019-05-28T10:54:45.873Z,25.4
2019-05-28T10:55:47.206Z,25.4
2019-05-28T10:56:48.495Z,25.4
2019-05-28T10:57:52.684Z,25.4
2019-05-28T10:58:57.469Z,25.4
2019-05-28T11:00:00.577Z,25.4
2019-05-28T11:01:02.145Z,25.4
2019-05-28T11:02:03.489Z,25.4
2019-05-28T11:03:04.832Z,25.4
2019-05-28T11:04:09.790Z,25.4
2019-05-28T11:05:12.423Z,25.4
2019-05-28T11:06:17.596Z,25.4
2019-05-28T11:07:18.901Z,25.4
2019-05-28T11:08:20.250Z,25.4
2019-05-28T11:09:21.615Z,25.4
2019-05-28T11:10:24.883Z,25.4
2019-05-28T11:11:26.443Z,25.4
2019-05-28T11:12:27.835Z,25.4
2019-05-28T11:13:29.641Z,25.4
2019-05-28T11:14:30.954Z,25.4
2019-05-28T11:15:33.475Z,25.4
2019-05-28T11:16:34.869Z,25.4
2019-05-28T11:17:36.227Z,25.5
2019-05-28T11:18:37.685Z,25.5
2019-05-28T11:19:39.262Z,25.4
2019-05-28T11:20:42.680Z,25.4
2019-05-28T11:21:44.067Z,25.4
2019-05-28T11:22:45.388Z,25.5
2019-05-28T11:23:46.736Z,25.5
2019-05-28T11:24:48.258Z,25.5
2019-05-28T11:25:49.543Z,25.4
2019-05-28T11:26:50.892Z,25.4
2019-05-28T11:27:53.526Z,25.4
2019-05-28T11:28:54.830Z,25.4
2019-05-28T11:29:56.398Z,25.4
2019-05-28T11:31:01.042Z,25.4
2019-05-28T11:32:05.441Z,25.4
2019-05-28T11:33:06.738Z,25.5
2019-05-28T11:34:08.080Z,25.5
2019-05-28T11:35:09.402Z,25.5
2019-05-28T11:36:12.362Z,25.4
2019-05-28T11:37:16.237Z,25.4
2019-05-28T11:38:23.370Z,25.4
2019-05-28T11:39:26.984Z,25.4
2019-05-28T11:40:30.047Z,25.4
2019-05-28T11:41:41.824Z,25.4
2019-05-28T11:42:46.562Z,25.4
2019-05-28T11:43:47.924Z,25.4
2019-05-28T11:44:49.302Z,25.4
2019-05-28T11:45:52.493Z,25.4
2019-05-28T11:46:53.938Z,25.4
2019-05-28T11:47:58.372Z,25.4
2019-05-28T11:48:59.810Z,25.3
2019-05-28T11:50:08.275Z,25.3
2019-05-28T11:51:09.829Z,25.4
2019-05-28T11:52:11.316Z,25.4
2019-05-28T11:53:12.682Z,25.4
2019-05-28T11:54:14.541Z,25.4
2019-05-28T11:55:15.961Z,25.4
2019-05-28T11:56:20.039Z,25.4
2019-05-28T11:57:21.607Z,25.4
2019-05-28T11:58:22.982Z,25.4
2019-05-28T11:59:24.343Z,25.3
2019-05-28T12:00:25.789Z,25.4
2019-05-28T12:01:34.175Z,25.4
2019-05-28T12:02:36.351Z,25.4
2019-05-28T12:03:38.002Z,25.4
2019-05-28T12:04:39.371Z,25.4
2019-05-28T12:05:42.662Z,25.4
2019-05-28T12:06:45.606Z,25.4
2019-05-28T12:07:46.964Z,25.4
2019-05-28T12:08:52.606Z,25.4
2019-05-28T12:09:54.173Z,25.3
2019-05-28T12:10:55.556Z,25.3
2019-05-28T12:11:56.872Z,25.1
2019-05-28T12:12:58.209Z,25.3
2019-05-28T12:14:00.847Z,25.3
2019-05-28T12:15:02.218Z,25.3
2019-05-28T12:16:04.872Z,25.2
2019-05-28T12:17:06.232Z,25.2
2019-05-28T12:18:07.562Z,25.2
2019-05-28T12:19:09.022Z,25.2
2019-05-28T12:20:12.932Z,25.1
2019-05-28T12:21:15.409Z,25.1
2019-05-28T12:22:16.741Z,25.1
2019-05-28T12:23:18.060Z,25.1
2019-05-28T12:24:19.407Z,25.1
2019-05-28T12:25:20.736Z,25.1
2019-05-28T12:26:24.614Z,25.1
2019-05-28T12:27:26.186Z,25.1
2019-05-28T12:28:37.358Z,25
2019-05-28T12:29:51.705Z,25
2019-05-28T12:30:56.634Z,25
2019-05-28T12:31:58.070Z,24.9
2019-05-28T12:33:00.778Z,24.8
2019-05-28T12:34:05.771Z,24.9
2019-05-28T12:35:26.184Z,24.9
2019-05-28T12:36:30.697Z,24.9
2019-05-28T12:37:46.787Z,24.8
2019-05-28T12:38:53.761Z,24.8
2019-05-28T12:39:57.093Z,24.8
2019-05-28T12:40:58.470Z,24.8
2019-05-28T12:42:03.256Z,24.7
2019-05-28T12:43:08.162Z,24.7
2019-05-28T12:44:10.765Z,24.7
2019-05-28T12:45:34.148Z,24.6
2019-05-28T12:46:36.982Z,24.6
2019-05-28T12:47:38.301Z,24.6
2019-05-28T12:48:39.829Z,24.6
2019-05-28T12:49:41.148Z,24.5
2019-05-28T12:50:42.658Z,24.5
2019-05-28T12:51:44.030Z,24.5
2019-05-28T12:52:47.194Z,24.5
2019-05-28T12:53:51.474Z,24.5
2019-05-28T12:54:54.386Z,24.5
2019-05-28T12:55:55.709Z,24.5
2019-05-28T12:56:57.090Z,24.5
2019-05-28T12:57:58.653Z,24.4
2019-05-28T12:59:00.298Z,24.4
2019-05-28T13:00:01.701Z,24.5
2019-05-28T13:01:05.309Z,24.5
2019-05-28T13:02:06.760Z,24.4
2019-05-28T13:03:11.944Z,24.4
2019-05-28T13:04:13.281Z,24.4
2019-05-28T13:05:14.637Z,24.4
2019-05-28T13:06:16.154Z,24.4
2019-05-28T13:07:17.540Z,24.3
2019-05-28T13:08:20.123Z,24.3
2019-05-28T13:09:24.239Z,24.3
2019-05-28T13:10:25.636Z,24.3
2019-05-28T13:11:28.945Z,24.3
2019-05-28T13:12:30.329Z,24.2
2019-05-28T13:13:31.635Z,24.2
2019-05-28T13:14:33.172Z,24.2
2019-05-28T13:15:34.813Z,24.2
2019-05-28T13:16:37.428Z,24.1
2019-05-28T13:17:42.098Z,24.1
2019-05-28T13:18:43.819Z,24.1
2019-05-28T13:19:46.685Z,24.1
2019-05-28T13:20:48.462Z,24.1
2019-05-28T13:21:50.186Z,24.1
2019-05-28T13:22:51.524Z,24.1
2019-05-28T13:23:57.633Z,24
2019-05-28T13:25:00.625Z,24
2019-05-28T13:26:08.861Z,24
2019-05-28T13:27:17.917Z,24
2019-05-28T13:28:21.233Z,24
2019-05-28T13:29:23.947Z,24
2019-05-28T13:30:25.290Z,24
2019-05-28T13:31:27.484Z,24
2019-05-28T13:32:28.792Z,24
2019-05-28T13:33:31.024Z,23.9
2019-05-28T13:34:32.367Z,23.9
2019-05-28T13:35:33.699Z,23.9
2019-05-28T13:36:35.007Z,23.9
2019-05-28T13:37:36.329Z,23.9
2019-05-28T13:38:37.740Z,23.9
2019-05-28T13:39:43.366Z,23.9
2019-05-28T13:40:44.766Z,23.9
2019-05-28T13:41:46.124Z,23.8
2019-05-28T13:42:47.430Z,23.8
2019-05-28T13:43:48.796Z,23.8
2019-05-28T13:44:50.129Z,23.8
2019-05-28T13:45:51.600Z,23.8
2019-05-28T13:46:52.943Z,23.8
2019-05-28T13:47:54.244Z,23.8
2019-05-28T13:48:55.602Z,23.8
2019-05-28T13:49:56.920Z,23.7
2019-05-28T13:50:58.698Z,23.7
2019-05-28T13:52:11.844Z,23.7
2019-05-28T13:53:13.993Z,23.7
2019-05-28T13:54:16.797Z,23.7
2019-05-28T13:55:18.131Z,23.7
2019-05-28T13:56:19.427Z,23.7
2019-05-28T13:57:20.757Z,23.7
2019-05-28T13:58:22.136Z,23.6